createdAt,value
2022-11-28T00:02:20.125Z,100775.16
2022-11-28T00:04:52.250Z,100776.66
2022-11-28T00:07:24.475Z,100775.06
2022-11-28T00:09:54.269Z,100772.44
2022-11-28T00:12:26.416Z,100765.75
2022-11-28T00:14:55.952Z,100770.31
2022-11-28T00:17:26.461Z,100768.84
2022-11-28T00:19:55.486Z,100763.19
2022-11-28T00:22:25.082Z,100759.34
2022-11-28T00:24:54.053Z,100756.91
2022-11-28T00:27:23.633Z,100751.56
2022-11-28T00:29:53.078Z,100729.25
2022-11-28T00:32:22.064Z,100751.31
2022-11-28T00:34:52.198Z,100758.31
2022-11-28T00:37:21.763Z,100760.34
2022-11-28T00:39:50.815Z,100757.97
2022-11-28T00:42:22.394Z,100760.28
2022-11-28T00:44:51.769Z,100752.03
2022-11-28T00:47:20.907Z,100751.81
2022-11-28T00:49:52.184Z,100749.94
2022-11-28T00:52:21.178Z,100751.81
2022-11-28T00:54:50.185Z,100737.34
2022-11-28T00:57:21.379Z,100730.06
2022-11-28T00:59:50.454Z,100729.53
2022-11-28T01:02:19.687Z,100733.38
2022-11-28T01:04:48.689Z,100731.53
2022-11-28T01:07:19.752Z,100731.53
2022-11-28T01:09:49.114Z,100731.50
2022-11-28T01:12:18.740Z,100722.84
2022-11-28T01:14:48.029Z,100727.47
2022-11-28T01:17:16.923Z,100721.16
2022-11-28T01:19:46.113Z,100715.53
2022-11-28T01:22:15.113Z,100718.03
2022-11-28T01:24:46.068Z,100714.84
2022-11-28T01:27:15.291Z,100720.63
2022-11-28T01:29:46.678Z,100718.56
2022-11-28T01:32:16.357Z,100717.28
2022-11-28T01:34:45.312Z,100714.78
2022-11-28T01:37:14.366Z,100706.41
2022-11-28T01:39:43.415Z,100704.41
2022-11-28T01:42:18.492Z,100706.03
2022-11-28T01:45:08.244Z,100713.22
2022-11-28T01:47:37.623Z,100706.81
2022-11-28T01:50:08.706Z,100715.47
2022-11-28T01:52:40.134Z,100709.34
2022-11-28T01:55:12.188Z,100717.56
2022-11-28T01:57:43.683Z,100709.94
2022-11-28T02:00:18.263Z,100709.94
2022-11-28T02:02:52.625Z,100705.81
2022-11-28T02:05:22.943Z,100704.16
2022-11-28T02:07:53.024Z,100702.31
2022-11-28T02:10:27.166Z,100673.38
2022-11-28T02:13:22.337Z,100696.63
2022-11-28T02:16:08.535Z,100692.59
2022-11-28T02:18:51.439Z,100691.31
2022-11-28T02:21:30.023Z,100687.41
2022-11-28T02:24:51.121Z,100681.06
2022-11-28T02:27:42.420Z,100691.16
2022-11-28T02:30:19.392Z,100694.28
2022-11-28T02:33:12.752Z,100700.78
2022-11-28T02:35:55.127Z,100703.09
2022-11-28T02:38:40.450Z,100694.75
2022-11-28T02:41:19.172Z,100696.44
2022-11-28T02:43:57.632Z,100693.63
2022-11-28T02:46:36.435Z,100692.75
2022-11-28T02:49:17.580Z,100681.44
2022-11-28T02:51:51.234Z,100691.34
2022-11-28T02:54:23.028Z,100665.28
2022-11-28T02:56:54.011Z,100658.53
2022-11-28T02:59:33.120Z,100693.88
2022-11-28T03:02:03.406Z,100678.09
2022-11-28T03:04:40.033Z,100677.56
2022-11-28T03:07:26.930Z,100680.16
2022-11-28T03:10:10.709Z,100682.84
2022-11-28T03:12:52.206Z,100674.47
2022-11-28T03:15:29.112Z,100683.50
2022-11-28T03:18:09.146Z,100686.75
2022-11-28T03:20:47.352Z,100689.97
2022-11-28T03:23:21.712Z,100678.63
2022-11-28T03:25:57.833Z,100660.91
2022-11-28T03:28:32.409Z,100669.41
2022-11-28T03:31:04.711Z,100671.16
2022-11-28T03:33:37.181Z,100679.56
2022-11-28T03:36:13.140Z,100676.25
2022-11-28T03:38:46.214Z,100686.28
2022-11-28T03:41:19.822Z,100670.47
2022-11-28T03:43:54.012Z,100679.13
2022-11-28T03:46:29.173Z,100685.53
2022-11-28T03:49:01.931Z,100666.34
2022-11-28T03:51:37.632Z,100679.59
2022-11-28T03:54:12.677Z,100645.19
2022-11-28T03:56:51.565Z,100685.06
2022-11-28T03:59:27.077Z,100669.94
2022-11-28T04:02:07.833Z,100689.75
2022-11-28T04:04:46.264Z,100683.75
2022-11-28T04:07:27.370Z,100681.53
2022-11-28T04:10:05.371Z,100676.69
2022-11-28T04:12:45.199Z,100677.66
2022-11-28T04:15:21.409Z,100684.06
2022-11-28T04:17:57.759Z,100688.41
2022-11-28T04:20:34.779Z,100686.59
2022-11-28T04:23:12.154Z,100598.38
2022-11-28T04:25:47.556Z,100682.94
2022-11-28T04:28:22.437Z,100686.94
2022-11-28T04:30:54.484Z,100687.38
2022-11-28T04:33:25.394Z,100688.31
2022-11-28T04:35:56.993Z,100690.16
2022-11-28T04:38:31.020Z,100689.03
2022-11-28T04:41:06.772Z,100690.25
2022-11-28T04:43:40.738Z,100705.28
2022-11-28T04:46:14.530Z,100699.81
2022-11-28T04:48:44.613Z,100700.53
2022-11-28T04:51:20.724Z,100700.88
2022-11-28T04:54:00.417Z,100680.19
2022-11-28T04:56:35.050Z,100702.00
2022-11-28T04:59:07.651Z,100700.38
2022-11-28T05:01:40.090Z,100691.47
2022-11-28T05:04:09.627Z,100697.88
2022-11-28T05:06:39.609Z,100706.34
2022-11-28T05:09:11.183Z,100695.19
2022-11-28T05:11:40.628Z,100717.50
2022-11-28T05:14:09.921Z,100707.06
2022-11-28T05:16:39.650Z,100716.31
2022-11-28T05:19:08.409Z,100714.31
2022-11-28T05:21:39.624Z,100721.13
2022-11-28T05:24:11.316Z,100723.59
2022-11-28T05:26:40.631Z,100731.06
2022-11-28T05:29:11.991Z,100728.00
2022-11-28T05:31:40.857Z,100737.03
2022-11-28T05:34:09.886Z,100739.47
2022-11-28T05:36:38.844Z,100739.56
2022-11-28T05:39:07.491Z,100741.88
2022-11-28T05:41:38.386Z,100737.47
2022-11-28T05:44:07.133Z,100734.41
2022-11-28T05:46:35.990Z,100745.63
2022-11-28T05:49:04.677Z,100743.63
2022-11-28T05:51:33.442Z,100737.72
2022-11-28T05:54:02.438Z,100639.75
2022-11-28T05:56:36.943Z,100726.78
2022-11-28T05:59:09.660Z,100740.03
2022-11-28T06:01:38.572Z,100747.13
2022-11-28T06:04:07.890Z,100743.66
2022-11-28T06:06:37.219Z,100637.47
2022-11-28T06:09:06.407Z,100739.22
2022-11-28T06:11:36.405Z,100739.50
2022-11-28T06:14:05.193Z,100739.63
2022-11-28T06:16:38.198Z,100738.00
2022-11-28T06:19:07.297Z,100742.16
2022-11-28T06:21:38.593Z,100736.88
2022-11-28T06:24:08.543Z,100703.09
2022-11-28T06:26:37.344Z,100738.47
2022-11-28T06:29:06.302Z,100752.47
2022-11-28T06:31:35.136Z,100754.97
2022-11-28T06:34:05.222Z,100759.66
2022-11-28T06:36:36.298Z,100763.69
2022-11-28T06:39:05.118Z,100769.88
2022-11-28T06:41:33.992Z,100754.66
2022-11-28T06:44:03.247Z,100756.75
2022-11-28T06:46:32.618Z,100761.78
2022-11-28T06:49:01.405Z,100766.28
2022-11-28T06:51:31.511Z,100776.09
2022-11-28T06:54:02.832Z,100765.41
2022-11-28T06:56:32.175Z,100769.78
2022-11-28T06:59:02.209Z,100764.75
2022-11-28T07:01:32.625Z,100778.56
2022-11-28T07:04:04.019Z,100777.47
2022-11-28T07:06:35.927Z,100767.41
2022-11-28T07:09:08.299Z,100783.34
2022-11-28T07:11:37.381Z,100782.94
2022-11-28T07:14:06.682Z,100785.94
2022-11-28T07:16:35.550Z,100792.19
2022-11-28T07:19:05.504Z,100795.69
2022-11-28T07:21:36.076Z,100792.06
2022-11-28T07:24:05.552Z,100793.75
2022-11-28T07:26:38.075Z,100783.72
2022-11-28T07:29:07.609Z,100787.50
2022-11-28T07:31:38.698Z,100788.91
2022-11-28T07:34:08.262Z,100798.72
2022-11-28T07:36:39.810Z,100799.81
2022-11-28T07:39:10.334Z,100803.16
2022-11-28T07:41:40.144Z,100798.63
2022-11-28T07:44:09.521Z,100801.50
2022-11-28T07:46:40.095Z,100811.03
2022-11-28T07:49:12.817Z,100813.34
2022-11-28T07:51:43.430Z,100811.28
2022-11-28T07:54:12.253Z,100815.81
2022-11-28T07:59:30.286Z,100822.16
2022-11-28T08:02:00.054Z,100819.38
2022-11-28T08:04:29.272Z,100829.72
2022-11-28T08:06:59.784Z,100823.59
2022-11-28T08:09:28.882Z,100823.38
2022-11-28T08:11:57.626Z,100820.91
2022-11-28T08:14:26.798Z,100811.63
2022-11-28T08:16:55.703Z,100829.66
2022-11-28T08:19:24.946Z,100832.31
2022-11-28T08:21:53.821Z,100826.22
2022-11-28T08:24:24.409Z,100824.59
2022-11-28T08:26:53.066Z,100840.88
2022-11-28T08:29:26.615Z,100821.75
2022-11-28T08:31:55.920Z,100826.75
2022-11-28T08:34:25.086Z,100827.44
2022-11-28T08:36:54.104Z,100817.31
2022-11-28T08:39:25.453Z,100822.69
2022-11-28T08:41:57.311Z,100808.63
2022-11-28T08:44:30.166Z,100825.53
2022-11-28T08:47:00.643Z,100822.09
2022-11-28T08:49:29.514Z,100825.91
2022-11-28T08:51:58.772Z,100822.09
2022-11-28T08:54:31.853Z,100835.91
2022-11-28T08:57:01.466Z,100839.28
2022-11-28T08:59:32.821Z,100842.31
2022-11-28T09:02:01.597Z,100806.25
2022-11-28T09:04:30.596Z,100722.94
2022-11-28T09:06:59.275Z,100835.34
2022-11-28T09:09:32.856Z,100818.78
2022-11-28T09:12:01.888Z,100844.25
2022-11-28T09:14:30.747Z,100839.06
2022-11-28T09:16:59.458Z,100827.56
2022-11-28T09:19:28.751Z,100847.13
2022-11-28T09:21:58.241Z,100815.91
2022-11-28T09:24:27.018Z,100834.03
2022-11-28T09:26:57.619Z,100840.84
2022-11-28T09:29:29.555Z,100830.97
2022-11-28T09:31:58.733Z,100828.16
2022-11-28T09:34:27.832Z,100837.13
2022-11-28T09:36:59.673Z,100839.72
2022-11-28T09:39:43.933Z,100839.25
2022-11-28T09:42:29.540Z,100844.34
2022-11-28T09:45:02.465Z,100847.56
2022-11-28T09:47:35.098Z,100847.94
2022-11-28T09:50:10.813Z,100850.59
2022-11-28T09:52:46.368Z,100776.91
2022-11-28T09:55:23.540Z,100845.19
2022-11-28T09:57:55.358Z,100862.50
2022-11-28T10:00:34.588Z,100864.19
2022-11-28T10:03:15.336Z,100857.31
2022-11-28T10:05:49.951Z,100833.69
2022-11-28T10:08:29.589Z,100838.34
2022-11-28T10:11:04.624Z,100856.47
2022-11-28T10:16:49.092Z,100860.63
2022-11-28T10:19:52.749Z,100865.75
2022-11-28T10:22:16.972Z,100867.44
2022-11-28T10:24:47.934Z,100866.59
2022-11-28T10:27:21.294Z,100865.50
2022-11-28T10:30:02.409Z,100860.91
2022-11-28T10:32:36.622Z,100863.78
2022-11-28T10:35:08.515Z,100860.69
2022-11-28T10:37:39.968Z,100829.13
2022-11-28T10:40:38.114Z,100859.59
2022-11-28T10:43:16.805Z,100866.66
2022-11-28T10:45:58.894Z,100879.16
2022-11-28T10:48:41.340Z,100877.06
2022-11-28T10:51:24.213Z,100856.22
2022-11-28T10:54:05.690Z,100883.19
2022-11-28T10:56:43.897Z,100883.47
2022-11-28T10:59:23.545Z,100852.66
2022-11-28T11:01:54.898Z,100777.81
2022-11-28T11:04:27.358Z,100891.19
2022-11-28T11:07:11.409Z,100890.47
2022-11-28T11:09:44.542Z,100883.56
2022-11-28T11:12:21.453Z,100880.19
2022-11-28T11:14:50.110Z,100888.75
2022-11-28T11:17:36.685Z,100893.97
2022-11-28T11:20:27.204Z,100889.81
2022-11-28T11:22:59.317Z,100891.25
2022-11-28T11:25:29.357Z,100899.63
2022-11-28T11:28:01.504Z,100881.50
2022-11-28T11:30:33.164Z,100880.34
2022-11-28T11:33:07.373Z,100889.41
2022-11-28T11:35:43.907Z,100882.72
2022-11-28T11:38:18.453Z,100876.75
2022-11-28T11:40:50.489Z,100866.22
2022-11-28T11:43:28.572Z,100875.00
2022-11-28T11:46:08.576Z,100870.84
2022-11-28T11:48:41.343Z,100875.91
2022-11-28T11:51:23.162Z,100879.44
2022-11-28T11:54:03.051Z,100862.78
2022-11-28T11:56:37.409Z,100871.81
2022-11-28T11:59:15.117Z,100873.16
2022-11-28T12:01:46.825Z,100874.13
2022-11-28T12:04:44.270Z,100863.78
2022-11-28T12:07:23.268Z,100863.72
2022-11-28T12:09:54.931Z,100855.63
2022-11-28T12:12:26.682Z,100870.28
2022-11-28T12:14:57.354Z,100872.56
2022-11-28T12:17:58.828Z,100872.97
2022-11-28T12:20:40.245Z,100866.47
2022-11-28T12:23:28.511Z,100875.03
2022-11-28T12:26:05.599Z,100879.53
2022-11-28T12:28:47.087Z,100856.84
2022-11-28T12:31:24.032Z,100883.03
2022-11-28T12:34:06.059Z,100890.25
2022-11-28T12:36:41.143Z,100887.97
2022-11-28T12:39:18.926Z,100887.22
2022-11-28T12:42:09.463Z,100887.53
2022-11-28T12:44:54.160Z,100906.22
2022-11-28T12:47:40.627Z,100871.81
2022-11-28T12:50:23.808Z,100897.72
2022-11-28T12:53:04.280Z,100902.78
2022-11-28T12:55:45.492Z,100904.88
2022-11-28T12:58:23.055Z,100900.50
2022-11-28T13:00:58.723Z,100899.97
2022-11-28T13:03:42.821Z,100901.53
2022-11-28T13:06:24.743Z,100904.13
2022-11-28T13:09:10.550Z,100897.47
2022-11-28T13:11:54.687Z,100901.84
2022-11-28T13:14:35.477Z,100899.22
2022-11-28T13:17:18.196Z,100910.50
2022-11-28T13:19:53.839Z,100908.84
2022-11-28T13:22:26.110Z,100910.19
2022-11-28T13:25:04.390Z,100882.72
2022-11-28T13:27:40.745Z,100914.56
2022-11-28T13:30:20.990Z,100920.50
2022-11-28T13:32:55.453Z,100912.72
2022-11-28T13:35:26.228Z,100909.22
2022-11-28T13:40:54.802Z,100905.31
2022-11-28T13:43:27.096Z,100930.00
2022-11-28T13:45:57.266Z,100925.53
2022-11-28T13:49:14.292Z,100924.88
2022-11-28T13:51:44.282Z,100923.47
2022-11-28T13:54:43.052Z,100931.88
2022-11-28T13:57:26.756Z,100938.00
2022-11-28T14:00:05.617Z,100935.84
2022-11-28T14:02:47.492Z,100924.66
2022-11-28T14:05:26.723Z,100920.31
2022-11-28T14:07:57.065Z,100791.47
2022-11-28T14:10:38.384Z,100927.13
2022-11-28T14:13:48.377Z,100921.25
2022-11-28T14:16:29.804Z,100935.72
2022-11-28T14:19:18.045Z,100937.88
2022-11-28T14:21:57.947Z,100944.97
2022-11-28T14:24:40.430Z,100944.19
2022-11-28T14:27:19.217Z,100944.97
2022-11-28T14:29:54.217Z,100968.50
2022-11-28T14:32:34.762Z,100940.03
2022-11-28T14:35:06.707Z,100949.09
2022-11-28T14:37:53.701Z,100949.31
2022-11-28T14:41:04.846Z,100940.53
2022-11-28T14:43:38.307Z,100943.72
2022-11-28T14:46:25.372Z,100951.38
2022-11-28T14:49:22.253Z,100956.94
2022-11-28T14:52:44.454Z,100954.19
2022-11-28T14:55:19.135Z,100961.34
2022-11-28T14:57:58.153Z,100984.69
2022-11-28T15:00:29.655Z,100964.53
2022-11-28T15:03:15.693Z,100968.75
2022-11-28T15:05:49.046Z,100969.25
2022-11-28T15:08:42.298Z,100975.59
2022-11-28T15:11:33.586Z,100897.09
2022-11-28T15:14:20.302Z,100964.91
2022-11-28T15:16:54.278Z,100975.09
2022-11-28T15:19:28.270Z,100975.03
2022-11-28T15:21:57.711Z,100985.03
2022-11-28T15:24:31.727Z,100988.91
2022-11-28T15:27:22.633Z,100980.31
2022-11-28T15:29:56.198Z,100988.75
2022-11-28T15:32:26.247Z,100987.53
2022-11-28T15:35:01.061Z,100990.16
2022-11-28T15:37:34.295Z,101009.81
2022-11-28T15:40:06.205Z,101007.31
2022-11-28T15:42:37.864Z,101006.34
2022-11-28T15:45:12.339Z,100994.03
2022-11-28T15:47:41.239Z,101003.81
2022-11-28T15:50:20.165Z,101024.22
2022-11-28T15:52:58.183Z,101032.94
2022-11-28T15:55:29.777Z,101029.53
2022-11-28T15:58:19.305Z,101039.06
2022-11-28T16:00:56.803Z,101041.84
2022-11-28T16:03:34.905Z,101040.16
2022-11-28T16:06:06.269Z,101042.78
2022-11-28T16:08:42.239Z,101045.56
2022-11-28T16:11:20.031Z,101049.06
2022-11-28T16:13:49.626Z,101067.56
2022-11-28T16:16:22.722Z,101049.22
2022-11-28T16:18:58.340Z,101055.44
2022-11-28T16:21:33.125Z,101056.47
2022-11-28T16:24:03.491Z,101055.75
2022-11-28T16:26:35.289Z,101056.69
2022-11-28T16:29:15.367Z,101051.72
2022-11-28T16:31:47.836Z,101050.69
2022-11-28T16:34:45.981Z,101046.47
2022-11-28T16:37:22.136Z,101041.50
2022-11-28T16:40:02.439Z,101009.16
2022-11-28T16:42:35.045Z,101054.09
2022-11-28T16:45:10.889Z,101042.28
2022-11-28T16:47:42.717Z,101050.78
2022-11-28T16:50:21.623Z,101051.56
2022-11-28T16:52:55.549Z,101056.00
2022-11-28T16:55:47.839Z,101059.50
2022-11-28T16:58:23.170Z,101062.28
2022-11-28T17:00:59.491Z,100956.59
2022-11-28T17:03:52.048Z,101076.69
2022-11-28T17:06:26.865Z,101077.41
2022-11-28T17:08:57.815Z,101068.75
2022-11-28T17:11:30.655Z,101069.69
2022-11-28T17:14:02.876Z,101067.81
2022-11-28T17:16:35.927Z,101064.44
2022-11-28T17:19:05.068Z,101085.19
2022-11-28T17:21:38.454Z,101083.47
2022-11-28T17:24:13.281Z,101082.72
2022-11-28T17:26:42.318Z,101082.56
2022-11-28T17:29:15.921Z,100974.56
2022-11-28T17:31:51.704Z,101098.13
2022-11-28T17:34:52.643Z,101102.94
2022-11-28T17:37:22.056Z,101109.13
2022-11-28T17:40:09.730Z,101107.47
2022-11-28T17:42:38.779Z,101108.16
2022-11-28T17:45:14.386Z,101095.72
2022-11-28T17:47:43.180Z,101118.06
2022-11-28T17:50:13.466Z,101126.72
2022-11-28T17:52:43.023Z,101113.75
2022-11-28T17:55:13.536Z,101110.97
2022-11-28T17:57:45.081Z,101118.66
2022-11-28T18:00:17.696Z,101107.91
2022-11-28T18:02:46.872Z,101110.03
2022-11-28T18:05:16.167Z,100931.75
2022-11-28T18:07:45.696Z,101099.47
2022-11-28T18:10:19.934Z,101115.38
2022-11-28T18:12:48.890Z,101114.63
2022-11-28T18:15:23.119Z,101116.59
2022-11-28T18:17:53.188Z,101125.09
2022-11-28T18:20:22.621Z,101131.91
2022-11-28T18:22:51.883Z,101133.53
2022-11-28T18:25:24.876Z,101141.97
2022-11-28T18:27:54.616Z,101139.00
2022-11-28T18:30:23.539Z,101137.91
2022-11-28T18:32:52.530Z,101144.09
2022-11-28T18:35:21.373Z,101137.03
2022-11-28T18:37:50.085Z,101141.13
2022-11-28T18:40:19.184Z,101142.00
2022-11-28T18:42:49.288Z,101141.25
2022-11-28T18:45:18.690Z,101138.56
2022-11-28T18:47:48.300Z,101142.75
2022-11-28T18:50:17.085Z,101151.19
2022-11-28T18:52:48.446Z,101151.19
2022-11-28T18:55:18.083Z,101148.47
2022-11-28T18:57:46.758Z,101140.06
2022-11-28T19:00:18.025Z,101152.78
2022-11-28T19:02:48.680Z,101159.47
2022-11-28T19:05:17.702Z,101164.03
2022-11-28T19:07:50.011Z,101171.94
2022-11-28T19:10:31.201Z,101168.38
2022-11-28T19:13:02.012Z,101183.94
2022-11-28T19:15:36.213Z,101183.16
2022-11-28T19:18:07.076Z,101175.38
2022-11-28T19:20:54.490Z,101193.28
2022-11-28T19:23:27.999Z,101155.47
2022-11-28T19:25:58.604Z,101171.50
2022-11-28T19:28:31.694Z,101173.06
2022-11-28T19:31:10.488Z,101169.59
2022-11-28T19:33:40.081Z,101169.16
2022-11-28T19:36:11.279Z,101178.91
2022-11-28T19:38:42.739Z,101173.94
2022-11-28T19:41:16.623Z,101179.78
2022-11-28T19:43:45.749Z,101158.88
2022-11-28T19:46:16.649Z,101179.22
2022-11-28T19:48:45.764Z,101185.59
2022-11-28T19:51:16.262Z,101133.25
2022-11-28T19:53:46.075Z,101182.59
2022-11-28T19:56:21.081Z,101183.59
2022-11-28T19:58:53.186Z,101193.22
2022-11-28T20:01:25.073Z,101193.72
2022-11-28T20:03:55.553Z,101196.47
2022-11-28T20:06:26.526Z,101200.91
2022-11-28T20:08:57.312Z,101207.69
2022-11-28T20:11:29.230Z,101207.66
2022-11-28T20:13:59.592Z,101186.59
2022-11-28T20:16:32.661Z,101207.00
2022-11-28T20:19:05.091Z,101220.13
2022-11-28T20:21:35.825Z,101205.44
2022-11-28T20:24:07.635Z,101194.28
2022-11-28T20:26:39.842Z,101208.13
2022-11-28T20:29:09.350Z,101187.72
2022-11-28T20:31:42.188Z,101201.22
2022-11-28T20:34:10.921Z,101208.13
2022-11-28T20:36:39.938Z,101207.38
2022-11-28T20:39:11.332Z,101220.81
2022-11-28T20:41:40.394Z,101214.97
2022-11-28T20:44:12.149Z,101223.38
2022-11-28T20:46:44.062Z,101210.63
2022-11-28T20:49:14.199Z,101128.97
2022-11-28T20:51:43.575Z,101229.09
2022-11-28T20:54:14.290Z,101226.59
2022-11-28T20:57:19.142Z,101229.28
2022-11-28T20:59:33.453Z,101234.47
2022-11-28T21:02:05.991Z,101237.09
2022-11-28T21:04:34.961Z,101244.91
2022-11-28T21:07:04.238Z,101252.63
2022-11-28T21:09:32.941Z,101250.78
2022-11-28T21:12:02.540Z,101251.59
2022-11-28T21:14:31.897Z,101258.81
2022-11-28T21:17:01.407Z,101254.59
2022-11-28T21:19:31.748Z,101255.56
2022-11-28T21:22:00.490Z,101254.72
2022-11-28T21:24:29.345Z,101244.22
2022-11-28T21:26:58.142Z,101243.50
2022-11-28T21:29:27.039Z,101234.31
2022-11-28T21:31:55.977Z,101242.81
2022-11-28T21:34:25.224Z,101248.97
2022-11-28T21:36:56.414Z,101261.22
2022-11-28T21:39:25.410Z,101260.44
2022-11-28T21:41:55.183Z,101253.53
2022-11-28T21:44:24.092Z,101259.69
2022-11-28T21:46:56.577Z,101262.28
2022-11-28T21:49:25.967Z,101254.69
2022-11-28T21:51:57.449Z,101271.97
2022-11-28T21:54:34.096Z,101269.50
2022-11-28T21:57:04.162Z,101270.53
2022-11-28T21:59:33.495Z,101270.66
2022-11-28T22:02:07.169Z,101270.63
2022-11-28T22:04:39.154Z,101275.91
2022-11-28T22:07:10.348Z,101258.25
2022-11-28T22:09:39.627Z,101282.13
2022-11-28T22:12:09.478Z,101285.47
2022-11-28T22:14:38.352Z,101269.53
2022-11-28T22:17:07.246Z,101284.06
2022-11-28T22:19:36.016Z,101282.59
2022-11-28T22:22:05.142Z,101281.00
2022-11-28T22:24:38.426Z,101281.88
2022-11-28T22:27:07.533Z,101290.59
2022-11-28T22:29:36.497Z,101288.09
2022-11-28T22:32:06.548Z,101289.00
2022-11-28T22:34:40.084Z,101264.41
2022-11-28T22:37:10.540Z,101283.91
2022-11-28T22:39:41.052Z,101279.78
2022-11-28T22:42:11.173Z,101283.19
2022-11-28T22:44:40.510Z,101291.81
2022-11-28T22:47:10.200Z,101291.81
2022-11-28T22:49:41.536Z,101296.22
2022-11-28T22:52:11.022Z,101294.41
2022-11-28T22:54:41.471Z,101303.50
2022-11-28T22:57:10.764Z,101217.94
2022-11-28T22:59:39.449Z,101310.72
2022-11-28T23:02:09.762Z,101313.31
2022-11-28T23:04:39.155Z,101307.34
2022-11-28T23:07:09.280Z,101311.59
2022-11-28T23:09:38.439Z,101310.03
2022-11-28T23:12:10.665Z,101303.97
2022-11-28T23:14:39.432Z,101305.66
2022-11-28T23:17:08.603Z,101312.63
2022-11-28T23:19:40.171Z,101322.34
2022-11-28T23:22:09.514Z,101325.66
2022-11-28T23:24:41.380Z,101325.47
2022-11-28T23:27:13.501Z,101331.69
2022-11-28T23:29:42.720Z,101335.28
2022-11-28T23:32:12.120Z,101330.06
2022-11-28T23:34:44.033Z,101326.66
2022-11-28T23:37:13.370Z,101325.88
2022-11-28T23:39:42.191Z,101327.63
2022-11-28T23:42:11.181Z,101322.13
2022-11-28T23:44:41.489Z,101323.16
2022-11-28T23:47:11.345Z,101327.59
2022-11-28T23:49:40.085Z,101326.75
2022-11-28T23:52:09.149Z,101331.09
2022-11-28T23:54:38.684Z,101331.16
2022-11-28T23:57:08.243Z,101325.13
2022-11-28T23:59:37.119Z,101335.53
